Manila, Philippines

11:31 AM PHT on September 02, 2014 (GMT +0800)
Dasmarinas | Change Station
CLOSE
Current Station
Personal Weather Station
Location: Makati, METRO MANILA
Elevation: 49 ft
Nearby Weather Stations

Elev 49 ft 14.55 °N, 121.03 °E | Updated 1 minute ago

Overcast
Overcast
82.0 °F
Feels Like 89 °F
N
0.7
Wind Variable Wind from South
Gusts 3.8 mph

Today
High -- | Low -- °F
--% Chance of Precip.
Yesterday
High -- | Low -- °F
Precip. -- in
5:44 AM 6:07 PM
Waxing Crescent, 47% visible
Pressure 29.86 in
Visibility 6.2 miles
Clouds Scattered Clouds 2300 ft
Overcast 30000 ft
Heat Index 89 °F
Dew Point 76 °F
Humidity 81%
Rainfall 0.07 in
Snow Depth Not available.
UV 5 out of 12
Pollen Not available.
Air Quality Not available.
Flu Activity Not available.
METAR RPLL 020300Z 30005KT 260V320 9999 SCT023 OVC300 29/26 Q1011 TEMPO 9000 -SHRA SCT023 BKN100 RMK A2986

More Conditions Fewer Conditions

Pressure 29.86 in
Visibility 6.2 miles
Clouds Scattered Clouds 2300 ft
Overcast 30000 ft
Heat Index 89 °F
Dew Point 76 °F
Humidity 81%
Rainfall 0.07 in
Snow Depth Not available.
UV 5 out of 12
Pollen Not available.
Air Quality Not available.
Flu Activity Not available.
METAR RPLL 020300Z 30005KT 260V320 9999 SCT023 OVC300 29/26 Q1011 TEMPO 9000 -SHRA SCT023 BKN100 RMK A2986

More Conditions Fewer Conditions

10-Day Weather Forecast

Almanac

Astronomy

Sep. 02, 2014 Rise Set
Actual Time 5:44 AM PHT 6:07 PM PHT
Civil Twilight 5:22 AM PHT 6:29 PM PHT
Nautical Twilight 4:57 AM PHT 6:54 PM PHT
Astronomical Twilight 4:31 AM PHT 7:19 PM PHT
Moon 11:49 AM PHT 11:35 PM PHT
Length of Visible Light 13h 06m
Length of Day
12h 23m
Tomorrow will be 0m 47s shorter.
Waxing Crescent, 47% of the Moon is Illuminated
Sep 1
Waxing Crescent
Sep 2
First Quarter
Sep 8
Full
Sep 15
Last Quarter
Sep 24
New

Yesterday's Extremes

Country Highs Country Lows

Community

WunderPhotos

Upload Photos

1,749,555 photos uploaded!

WunderBlogs® & News

Nearby

Snow Depth

Not available.

Earthquake Activity

City Distance Mag. Time & Date
No recent earthquake activity has been reported nearby.
Minimum magnitude displayed is 2.5.

Coastal Water Temperatures

Place Temperature
No Stations Reporting

Nearby Weather Stations